sensor_id;sensor_type;location;lat;lon;timestamp;P1;durP1;ratioP1;P2;durP2;ratioP2
60006;SDS011;45863;50.336;3.536;2023-04-03T00:00:36;32.33;;;18.38;;
60006;SDS011;45863;50.336;3.536;2023-04-03T00:03:01;28.77;;;18.00;;
60006;SDS011;45863;50.336;3.536;2023-04-03T00:05:26;27.45;;;17.42;;
60006;SDS011;45863;50.336;3.536;2023-04-03T00:07:51;31.42;;;18.45;;
60006;SDS011;45863;50.336;3.536;2023-04-03T00:10:16;29.33;;;17.55;;
60006;SDS011;45863;50.336;3.536;2023-04-03T00:12:42;28.75;;;16.38;;
60006;SDS011;45863;50.336;3.536;2023-04-03T00:15:07;27.27;;;16.73;;
60006;SDS011;45863;50.336;3.536;2023-04-03T00:17:33;31.25;;;18.25;;
60006;SDS011;45863;50.336;3.536;2023-04-03T00:19:58;25.75;;;15.30;;
60006;SDS011;45863;50.336;3.536;2023-04-03T00:22:24;32.65;;;17.42;;
60006;SDS011;45863;50.336;3.536;2023-04-03T00:24:51;28.23;;;15.70;;
60006;SDS011;45863;50.336;3.536;2023-04-03T00:27:16;26.52;;;17.00;;
60006;SDS011;45863;50.336;3.536;2023-04-03T00:29:41;29.17;;;17.50;;
60006;SDS011;45863;50.336;3.536;2023-04-03T00:32:06;26.95;;;16.30;;
60006;SDS011;45863;50.336;3.536;2023-04-03T00:34:32;24.77;;;16.27;;
60006;SDS011;45863;50.336;3.536;2023-04-03T00:36:57;25.88;;;16.95;;
60006;SDS011;45863;50.336;3.536;2023-04-03T00:39:22;30.98;;;17.70;;
60006;SDS011;45863;50.336;3.536;2023-04-03T00:41:47;24.25;;;16.17;;
60006;SDS011;45863;50.336;3.536;2023-04-03T00:44:19;32.13;;;18.83;;
60006;SDS011;45863;50.336;3.536;2023-04-03T00:46:45;29.20;;;16.92;;
60006;SDS011;45863;50.336;3.536;2023-04-03T00:49:10;33.15;;;18.00;;
60006;SDS011;45863;50.336;3.536;2023-04-03T00:51:35;27.42;;;16.98;;
60006;SDS011;45863;50.336;3.536;2023-04-03T00:54:01;27.65;;;16.70;;
60006;SDS011;45863;50.336;3.536;2023-04-03T00:56:27;28.10;;;17.52;;
60006;SDS011;45863;50.336;3.536;2023-04-03T00:58:56;30.02;;;17.92;;
60006;SDS011;45863;50.336;3.536;2023-04-03T01:01:25;30.35;;;18.13;;
60006;SDS011;45863;50.336;3.536;2023-04-03T01:03:51;33.35;;;18.83;;
60006;SDS011;45863;50.336;3.536;2023-04-03T01:06:17;33.97;;;19.23;;
60006;SDS011;45863;50.336;3.536;2023-04-03T01:08:45;29.45;;;17.15;;
60006;SDS011;45863;50.336;3.536;2023-04-03T01:11:12;30.88;;;17.98;;
60006;SDS011;45863;50.336;3.536;2023-04-03T01:13:37;34.28;;;20.45;;
60006;SDS011;45863;50.336;3.536;2023-04-03T01:16:03;34.58;;;19.50;;
60006;SDS011;45863;50.336;3.536;2023-04-03T01:18:28;33.33;;;19.92;;
60006;SDS011;45863;50.336;3.536;2023-04-03T01:28:22;34.15;;;17.98;;
60006;SDS011;45863;50.336;3.536;2023-04-03T01:30:50;28.45;;;17.88;;
60006;SDS011;45863;50.336;3.536;2023-04-03T01:33:16;30.60;;;18.73;;
60006;SDS011;45863;50.336;3.536;2023-04-03T01:35:41;35.47;;;19.25;;
60006;SDS011;45863;50.336;3.536;2023-04-03T01:38:06;34.65;;;18.83;;
60006;SDS011;45863;50.336;3.536;2023-04-03T01:40:32;34.95;;;19.65;;
60006;SDS011;45863;50.336;3.536;2023-04-03T01:42:57;32.67;;;18.42;;
60006;SDS011;45863;50.336;3.536;2023-04-03T01:45:23;35.08;;;19.05;;
60006;SDS011;45863;50.336;3.536;2023-04-03T01:47:48;33.92;;;18.88;;
60006;SDS011;45863;50.336;3.536;2023-04-03T01:50:13;35.30;;;19.52;;
60006;SDS011;45863;50.336;3.536;2023-04-03T01:52:38;34.42;;;18.08;;
60006;SDS011;45863;50.336;3.536;2023-04-03T01:55:04;34.85;;;19.13;;
60006;SDS011;45863;50.336;3.536;2023-04-03T01:57:29;32.42;;;19.77;;
60006;SDS011;45863;50.336;3.536;2023-04-03T01:59:55;34.17;;;18.75;;
60006;SDS011;45863;50.336;3.536;2023-04-03T02:02:20;33.75;;;19.42;;
60006;SDS011;45863;50.336;3.536;2023-04-03T02:04:45;33.08;;;18.95;;
60006;SDS011;45863;50.336;3.536;2023-04-03T02:07:11;25.65;;;15.00;;
60006;SDS011;45863;50.336;3.536;2023-04-03T02:09:36;26.92;;;15.02;;
60006;SDS011;45863;50.336;3.536;2023-04-03T02:12:01;27.23;;;15.93;;
60006;SDS011;45863;50.336;3.536;2023-04-03T02:14:26;26.17;;;16.30;;
60006;SDS011;45863;50.336;3.536;2023-04-03T02:16:52;29.02;;;16.50;;
60006;SDS011;45863;50.336;3.536;2023-04-03T02:19:17;28.77;;;17.17;;
60006;SDS011;45863;50.336;3.536;2023-04-03T02:21:43;34.65;;;19.58;;
60006;SDS011;45863;50.336;3.536;2023-04-03T02:24:08;34.38;;;19.25;;
60006;SDS011;45863;50.336;3.536;2023-04-03T02:26:33;33.50;;;19.67;;
60006;SDS011;45863;50.336;3.536;2023-04-03T02:28:58;33.20;;;19.17;;
60006;SDS011;45863;50.336;3.536;2023-04-03T02:31:24;33.28;;;19.67;;
60006;SDS011;45863;50.336;3.536;2023-04-03T02:33:49;36.83;;;19.88;;
60006;SDS011;45863;50.336;3.536;2023-04-03T02:36:15;34.58;;;18.70;;
60006;SDS011;45863;50.336;3.536;2023-04-03T02:38:40;32.80;;;17.92;;
60006;SDS011;45863;50.336;3.536;2023-04-03T02:41:07;32.20;;;18.80;;
60006;SDS011;45863;50.336;3.536;2023-04-03T02:43:32;29.85;;;18.95;;
60006;SDS011;45863;50.336;3.536;2023-04-03T02:45:58;34.40;;;18.90;;
60006;SDS011;45863;50.336;3.536;2023-04-03T02:48:23;35.42;;;18.77;;
60006;SDS011;45863;50.336;3.536;2023-04-03T02:50:49;31.70;;;18.13;;
60006;SDS011;45863;50.336;3.536;2023-04-03T02:53:14;35.05;;;20.08;;
60006;SDS011;45863;50.336;3.536;2023-04-03T02:55:40;34.20;;;19.27;;
60006;SDS011;45863;50.336;3.536;2023-04-03T02:58:05;33.22;;;18.33;;
60006;SDS011;45863;50.336;3.536;2023-04-03T03:00:30;37.05;;;19.77;;
60006;SDS011;45863;50.336;3.536;2023-04-03T03:02:55;34.35;;;18.98;;
60006;SDS011;45863;50.336;3.536;2023-04-03T03:05:21;29.55;;;18.13;;
60006;SDS011;45863;50.336;3.536;2023-04-03T03:07:47;38.65;;;20.15;;
60006;SDS011;45863;50.336;3.536;2023-04-03T03:10:12;34.05;;;19.83;;
60006;SDS011;45863;50.336;3.536;2023-04-03T03:12:37;34.38;;;19.10;;
60006;SDS011;45863;50.336;3.536;2023-04-03T03:15:03;37.08;;;19.80;;
60006;SDS011;45863;50.336;3.536;2023-04-03T03:17:28;32.63;;;18.30;;
60006;SDS011;45863;50.336;3.536;2023-04-03T03:19:53;33.88;;;19.13;;
60006;SDS011;45863;50.336;3.536;2023-04-03T03:22:19;32.97;;;19.03;;
60006;SDS011;45863;50.336;3.536;2023-04-03T03:24:44;34.30;;;20.13;;
60006;SDS011;45863;50.336;3.536;2023-04-03T03:27:09;38.95;;;22.88;;
60006;SDS011;45863;50.336;3.536;2023-04-03T03:29:35;37.90;;;21.48;;
60006;SDS011;45863;50.336;3.536;2023-04-03T03:32:00;35.35;;;20.60;;
60006;SDS011;45863;50.336;3.536;2023-04-03T03:34:25;36.45;;;21.73;;
60006;SDS011;45863;50.336;3.536;2023-04-03T03:36:50;36.38;;;22.05;;
60006;SDS011;45863;50.336;3.536;2023-04-03T03:39:16;41.05;;;24.38;;
60006;SDS011;45863;50.336;3.536;2023-04-03T03:41:41;43.40;;;22.80;;
60006;SDS011;45863;50.336;3.536;2023-04-03T03:44:06;40.67;;;23.85;;
60006;SDS011;45863;50.336;3.536;2023-04-03T03:46:31;40.10;;;22.98;;
60006;SDS011;45863;50.336;3.536;2023-04-03T03:48:57;46.13;;;24.60;;
60006;SDS011;45863;50.336;3.536;2023-04-03T03:51:22;45.72;;;24.92;;
60006;SDS011;45863;50.336;3.536;2023-04-03T03:53:47;48.83;;;26.33;;
60006;SDS011;45863;50.336;3.536;2023-04-03T03:56:12;44.40;;;24.33;;
60006;SDS011;45863;50.336;3.536;2023-04-03T03:58:38;43.75;;;23.70;;
60006;SDS011;45863;50.336;3.536;2023-04-03T04:01:03;42.97;;;23.38;;
60006;SDS011;45863;50.336;3.536;2023-04-03T04:03:30;43.42;;;23.33;;
60006;SDS011;45863;50.336;3.536;2023-04-03T04:05:55;45.78;;;24.10;;
60006;SDS011;45863;50.336;3.536;2023-04-03T04:08:21;42.90;;;23.88;;
60006;SDS011;45863;50.336;3.536;2023-04-03T04:10:46;41.55;;;24.58;;
60006;SDS011;45863;50.336;3.536;2023-04-03T04:13:11;46.67;;;23.67;;
60006;SDS011;45863;50.336;3.536;2023-04-03T04:15:37;34.10;;;20.95;;
60006;SDS011;45863;50.336;3.536;2023-04-03T04:18:02;36.17;;;21.88;;
60006;SDS011;45863;50.336;3.536;2023-04-03T04:20:27;39.70;;;21.77;;
60006;SDS011;45863;50.336;3.536;2023-04-03T04:22:52;39.67;;;20.45;;
60006;SDS011;45863;50.336;3.536;2023-04-03T04:25:18;36.80;;;21.63;;
60006;SDS011;45863;50.336;3.536;2023-04-03T04:27:43;36.47;;;22.52;;
60006;SDS011;45863;50.336;3.536;2023-04-03T04:30:08;42.72;;;22.50;;
60006;SDS011;45863;50.336;3.536;2023-04-03T04:32:34;40.90;;;22.20;;
60006;SDS011;45863;50.336;3.536;2023-04-03T04:35:00;37.80;;;20.92;;
60006;SDS011;45863;50.336;3.536;2023-04-03T04:37:26;35.70;;;21.60;;
60006;SDS011;45863;50.336;3.536;2023-04-03T04:39:51;42.47;;;21.33;;
60006;SDS011;45863;50.336;3.536;2023-04-03T04:42:16;35.47;;;22.25;;
60006;SDS011;45863;50.336;3.536;2023-04-03T04:44:41;42.28;;;23.83;;
60006;SDS011;45863;50.336;3.536;2023-04-03T04:47:07;42.83;;;23.70;;
60006;SDS011;45863;50.336;3.536;2023-04-03T04:49:32;36.92;;;23.10;;
60006;SDS011;45863;50.336;3.536;2023-04-03T04:51:57;43.60;;;24.20;;
60006;SDS011;45863;50.336;3.536;2023-04-03T04:54:22;40.72;;;23.80;;
60006;SDS011;45863;50.336;3.536;2023-04-03T04:56:48;39.47;;;23.08;;
60006;SDS011;45863;50.336;3.536;2023-04-03T04:59:13;37.58;;;22.75;;
60006;SDS011;45863;50.336;3.536;2023-04-03T05:01:38;47.80;;;24.23;;
60006;SDS011;45863;50.336;3.536;2023-04-03T05:04:03;36.10;;;21.88;;
60006;SDS011;45863;50.336;3.536;2023-04-03T05:06:29;48.40;;;24.27;;
60006;SDS011;45863;50.336;3.536;2023-04-03T05:08:55;39.35;;;23.88;;
60006;SDS011;45863;50.336;3.536;2023-04-03T05:11:20;45.08;;;27.38;;
60006;SDS011;45863;50.336;3.536;2023-04-03T05:13:46;53.78;;;31.63;;
60006;SDS011;45863;50.336;3.536;2023-04-03T05:16:11;48.63;;;28.77;;
60006;SDS011;45863;50.336;3.536;2023-04-03T05:18:36;45.33;;;27.25;;
60006;SDS011;45863;50.336;3.536;2023-04-03T05:21:01;48.03;;;27.58;;
60006;SDS011;45863;50.336;3.536;2023-04-03T05:23:26;45.72;;;25.33;;
60006;SDS011;45863;50.336;3.536;2023-04-03T05:25:52;41.45;;;25.42;;
60006;SDS011;45863;50.336;3.536;2023-04-03T05:28:17;42.28;;;22.48;;
60006;SDS011;45863;50.336;3.536;2023-04-03T05:30:43;39.72;;;22.92;;
60006;SDS011;45863;50.336;3.536;2023-04-03T05:33:08;44.65;;;23.67;;
60006;SDS011;45863;50.336;3.536;2023-04-03T05:35:35;36.78;;;21.42;;
60006;SDS011;45863;50.336;3.536;2023-04-03T05:38:00;40.08;;;23.02;;
60006;SDS011;45863;50.336;3.536;2023-04-03T05:40:25;35.33;;;21.45;;
60006;SDS011;45863;50.336;3.536;2023-04-03T05:42:51;33.25;;;21.42;;
60006;SDS011;45863;50.336;3.536;2023-04-03T05:45:16;35.45;;;21.88;;
60006;SDS011;45863;50.336;3.536;2023-04-03T05:47:41;43.33;;;22.98;;
60006;SDS011;45863;50.336;3.536;2023-04-03T05:50:07;39.95;;;22.20;;
60006;SDS011;45863;50.336;3.536;2023-04-03T05:52:36;36.45;;;21.70;;
60006;SDS011;45863;50.336;3.536;2023-04-03T05:55:02;34.50;;;20.80;;
60006;SDS011;45863;50.336;3.536;2023-04-03T05:57:27;35.20;;;20.60;;
60006;SDS011;45863;50.336;3.536;2023-04-03T05:59:52;37.20;;;20.88;;
60006;SDS011;45863;50.336;3.536;2023-04-03T06:02:22;36.60;;;21.75;;
60006;SDS011;45863;50.336;3.536;2023-04-03T06:04:48;36.75;;;22.60;;
60006;SDS011;45863;50.336;3.536;2023-04-03T06:07:17;36.58;;;21.92;;
60006;SDS011;45863;50.336;3.536;2023-04-03T06:09:44;32.40;;;20.85;;
60006;SDS011;45863;50.336;3.536;2023-04-03T06:12:09;30.27;;;19.27;;
60006;SDS011;45863;50.336;3.536;2023-04-03T06:14:35;27.15;;;17.58;;
60006;SDS011;45863;50.336;3.536;2023-04-03T06:17:00;30.60;;;17.73;;
60006;SDS011;45863;50.336;3.536;2023-04-03T06:19:26;28.25;;;18.15;;
60006;SDS011;45863;50.336;3.536;2023-04-03T06:21:52;31.25;;;17.23;;
60006;SDS011;45863;50.336;3.536;2023-04-03T06:24:17;29.17;;;17.65;;
60006;SDS011;45863;50.336;3.536;2023-04-03T06:26:43;25.70;;;16.88;;
60006;SDS011;45863;50.336;3.536;2023-04-03T06:29:08;26.83;;;16.92;;
60006;SDS011;45863;50.336;3.536;2023-04-03T06:31:33;28.35;;;15.88;;
60006;SDS011;45863;50.336;3.536;2023-04-03T06:33:59;27.13;;;16.15;;
60006;SDS011;45863;50.336;3.536;2023-04-03T06:36:25;23.55;;;15.30;;
60006;SDS011;45863;50.336;3.536;2023-04-03T06:38:50;27.40;;;14.77;;
60006;SDS011;45863;50.336;3.536;2023-04-03T06:41:16;23.40;;;14.57;;
60006;SDS011;45863;50.336;3.536;2023-04-03T06:43:42;30.23;;;14.35;;
60006;SDS011;45863;50.336;3.536;2023-04-03T06:46:12;24.77;;;15.07;;
60006;SDS011;45863;50.336;3.536;2023-04-03T06:48:38;27.73;;;15.30;;
60006;SDS011;45863;50.336;3.536;2023-04-03T06:51:03;22.95;;;14.30;;
60006;SDS011;45863;50.336;3.536;2023-04-03T06:53:28;22.63;;;13.45;;
60006;SDS011;45863;50.336;3.536;2023-04-03T06:55:54;22.17;;;13.65;;
60006;SDS011;45863;50.336;3.536;2023-04-03T06:58:20;23.70;;;13.75;;
60006;SDS011;45863;50.336;3.536;2023-04-03T07:00:45;20.85;;;12.35;;
60006;SDS011;45863;50.336;3.536;2023-04-03T07:03:11;19.33;;;12.68;;
60006;SDS011;45863;50.336;3.536;2023-04-03T07:05:37;17.77;;;11.50;;
60006;SDS011;45863;50.336;3.536;2023-04-03T07:08:02;18.55;;;11.52;;
60006;SDS011;45863;50.336;3.536;2023-04-03T07:10:27;21.95;;;12.00;;
60006;SDS011;45863;50.336;3.536;2023-04-03T07:12:52;20.45;;;11.27;;
60006;SDS011;45863;50.336;3.536;2023-04-03T07:15:18;15.27;;;10.43;;
60006;SDS011;45863;50.336;3.536;2023-04-03T07:17:43;16.20;;;10.82;;
60006;SDS011;45863;50.336;3.536;2023-04-03T07:20:08;23.58;;;13.30;;
60006;SDS011;45863;50.336;3.536;2023-04-03T07:22:34;22.25;;;11.65;;
60006;SDS011;45863;50.336;3.536;2023-04-03T07:24:59;16.73;;;11.32;;
60006;SDS011;45863;50.336;3.536;2023-04-03T07:27:25;15.85;;;10.07;;
60006;SDS011;45863;50.336;3.536;2023-04-03T07:29:50;14.73;;;10.23;;
60006;SDS011;45863;50.336;3.536;2023-04-03T07:32:16;16.10;;;11.07;;
60006;SDS011;45863;50.336;3.536;2023-04-03T07:34:42;17.67;;;10.63;;
60006;SDS011;45863;50.336;3.536;2023-04-03T07:37:07;16.90;;;9.60;;
60006;SDS011;45863;50.336;3.536;2023-04-03T07:39:34;15.75;;;9.57;;
60006;SDS011;45863;50.336;3.536;2023-04-03T07:41:59;13.77;;;9.63;;
60006;SDS011;45863;50.336;3.536;2023-04-03T07:44:25;14.25;;;8.98;;
60006;SDS011;45863;50.336;3.536;2023-04-03T07:46:51;17.20;;;9.38;;
60006;SDS011;45863;50.336;3.536;2023-04-03T07:49:17;19.10;;;9.23;;
60006;SDS011;45863;50.336;3.536;2023-04-03T07:51:43;13.90;;;8.13;;
60006;SDS011;45863;50.336;3.536;2023-04-03T07:54:09;14.93;;;8.43;;
60006;SDS011;45863;50.336;3.536;2023-04-03T07:56:34;13.38;;;7.25;;
60006;SDS011;45863;50.336;3.536;2023-04-03T07:59:00;12.68;;;6.30;;
60006;SDS011;45863;50.336;3.536;2023-04-03T08:01:25;15.40;;;6.63;;
60006;SDS011;45863;50.336;3.536;2023-04-03T08:03:50;11.18;;;6.85;;
60006;SDS011;45863;50.336;3.536;2023-04-03T08:06:16;14.27;;;6.68;;
60006;SDS011;45863;50.336;3.536;2023-04-03T08:08:41;11.00;;;6.65;;
60006;SDS011;45863;50.336;3.536;2023-04-03T08:11:06;11.20;;;6.23;;
60006;SDS011;45863;50.336;3.536;2023-04-03T08:13:33;11.80;;;6.60;;
60006;SDS011;45863;50.336;3.536;2023-04-03T08:16:06;12.27;;;7.20;;
60006;SDS011;45863;50.336;3.536;2023-04-03T08:18:32;14.48;;;7.07;;
60006;SDS011;45863;50.336;3.536;2023-04-03T08:20:57;11.90;;;6.47;;
60006;SDS011;45863;50.336;3.536;2023-04-03T08:23:22;10.97;;;7.07;;
60006;SDS011;45863;50.336;3.536;2023-04-03T08:25:47;12.97;;;6.87;;
60006;SDS011;45863;50.336;3.536;2023-04-03T08:28:12;12.77;;;6.30;;
60006;SDS011;45863;50.336;3.536;2023-04-03T08:30:39;12.15;;;6.68;;
60006;SDS011;45863;50.336;3.536;2023-04-03T08:33:04;9.63;;;5.55;;
60006;SDS011;45863;50.336;3.536;2023-04-03T08:35:30;13.57;;;6.00;;
60006;SDS011;45863;50.336;3.536;2023-04-03T08:37:55;12.20;;;6.47;;
60006;SDS011;45863;50.336;3.536;2023-04-03T08:40:21;10.05;;;6.32;;
60006;SDS011;45863;50.336;3.536;2023-04-03T08:42:59;10.43;;;5.22;;
60006;SDS011;45863;50.336;3.536;2023-04-03T08:45:42;11.18;;;5.65;;
60006;SDS011;45863;50.336;3.536;2023-04-03T08:50:41;11.43;;;4.97;;
60006;SDS011;45863;50.336;3.536;2023-04-03T08:53:12;11.00;;;5.10;;
60006;SDS011;45863;50.336;3.536;2023-04-03T08:55:45;8.80;;;4.75;;
60006;SDS011;45863;50.336;3.536;2023-04-03T08:58:30;11.60;;;4.72;;
60006;SDS011;45863;50.336;3.536;2023-04-03T09:01:01;9.23;;;3.97;;
60006;SDS011;45863;50.336;3.536;2023-04-03T09:03:28;6.80;;;3.92;;
60006;SDS011;45863;50.336;3.536;2023-04-03T09:05:59;8.50;;;3.90;;
60006;SDS011;45863;50.336;3.536;2023-04-03T09:08:50;8.43;;;3.75;;
60006;SDS011;45863;50.336;3.536;2023-04-03T09:11:24;7.25;;;3.78;;
60006;SDS011;45863;50.336;3.536;2023-04-03T09:14:02;8.60;;;3.72;;
60006;SDS011;45863;50.336;3.536;2023-04-03T09:18:58;6.93;;;3.27;;
60006;SDS011;45863;50.336;3.536;2023-04-03T09:21:28;7.75;;;3.95;;
60006;SDS011;45863;50.336;3.536;2023-04-03T09:23:55;7.38;;;3.67;;
60006;SDS011;45863;50.336;3.536;2023-04-03T09:28:51;7.85;;;3.72;;
60006;SDS011;45863;50.336;3.536;2023-04-03T09:33:47;7.97;;;3.38;;
60006;SDS011;45863;50.336;3.536;2023-04-03T09:36:12;6.20;;;2.75;;
60006;SDS011;45863;50.336;3.536;2023-04-03T09:38:38;7.18;;;3.30;;
60006;SDS011;45863;50.336;3.536;2023-04-03T09:41:05;10.37;;;3.37;;
60006;SDS011;45863;50.336;3.536;2023-04-03T09:43:32;6.28;;;2.75;;
60006;SDS011;45863;50.336;3.536;2023-04-03T09:48:49;8.27;;;3.20;;
60006;SDS011;45863;50.336;3.536;2023-04-03T09:51:15;6.97;;;3.42;;
60006;SDS011;45863;50.336;3.536;2023-04-03T09:53:41;6.72;;;3.42;;
60006;SDS011;45863;50.336;3.536;2023-04-03T09:58:42;8.68;;;4.35;;
60006;SDS011;45863;50.336;3.536;2023-04-03T10:01:20;12.15;;;4.40;;
60006;SDS011;45863;50.336;3.536;2023-04-03T10:03:45;7.32;;;3.92;;
60006;SDS011;45863;50.336;3.536;2023-04-03T10:06:23;7.97;;;3.35;;
60006;SDS011;45863;50.336;3.536;2023-04-03T10:08:58;6.68;;;3.28;;
60006;SDS011;45863;50.336;3.536;2023-04-03T10:11:24;7.40;;;3.25;;
60006;SDS011;45863;50.336;3.536;2023-04-03T10:13:51;10.18;;;4.13;;
60006;SDS011;45863;50.336;3.536;2023-04-03T10:16:18;6.50;;;3.50;;
60006;SDS011;45863;50.336;3.536;2023-04-03T10:18:45;5.63;;;2.85;;
60006;SDS011;45863;50.336;3.536;2023-04-03T10:21:29;6.28;;;3.35;;
60006;SDS011;45863;50.336;3.536;2023-04-03T10:24:02;6.55;;;2.78;;
60006;SDS011;45863;50.336;3.536;2023-04-03T10:29:16;5.53;;;2.90;;
60006;SDS011;45863;50.336;3.536;2023-04-03T10:31:46;5.82;;;3.00;;
60006;SDS011;45863;50.336;3.536;2023-04-03T10:34:21;6.55;;;2.78;;
60006;SDS011;45863;50.336;3.536;2023-04-03T10:41:54;6.82;;;3.25;;
60006;SDS011;45863;50.336;3.536;2023-04-03T10:44:29;7.47;;;3.63;;
60006;SDS011;45863;50.336;3.536;2023-04-03T10:52:31;7.63;;;4.07;;
60006;SDS011;45863;50.336;3.536;2023-04-03T10:57:25;9.97;;;4.03;;
60006;SDS011;45863;50.336;3.536;2023-04-03T11:00:01;8.13;;;3.30;;
60006;SDS011;45863;50.336;3.536;2023-04-03T11:02:31;6.75;;;3.60;;
60006;SDS011;45863;50.336;3.536;2023-04-03T11:05:01;8.57;;;3.58;;
60006;SDS011;45863;50.336;3.536;2023-04-03T11:07:28;9.80;;;3.72;;
60006;SDS011;45863;50.336;3.536;2023-04-03T11:10:02;7.00;;;3.53;;
60006;SDS011;45863;50.336;3.536;2023-04-03T11:12:44;5.72;;;3.28;;
60006;SDS011;45863;50.336;3.536;2023-04-03T11:15:15;6.35;;;2.92;;
60006;SDS011;45863;50.336;3.536;2023-04-03T11:17:42;6.70;;;3.22;;
60006;SDS011;45863;50.336;3.536;2023-04-03T11:20:22;6.97;;;3.35;;
60006;SDS011;45863;50.336;3.536;2023-04-03T11:22:53;7.07;;;3.55;;
60006;SDS011;45863;50.336;3.536;2023-04-03T11:25:24;6.72;;;3.80;;
60006;SDS011;45863;50.336;3.536;2023-04-03T11:27:59;8.65;;;3.70;;
60006;SDS011;45863;50.336;3.536;2023-04-03T11:30:41;7.78;;;3.63;;
60006;SDS011;45863;50.336;3.536;2023-04-03T11:36:11;7.07;;;3.20;;
60006;SDS011;45863;50.336;3.536;2023-04-03T11:38:40;5.80;;;3.03;;
60006;SDS011;45863;50.336;3.536;2023-04-03T11:41:07;7.07;;;3.50;;
60006;SDS011;45863;50.336;3.536;2023-04-03T11:43:33;6.18;;;3.75;;
60006;SDS011;45863;50.336;3.536;2023-04-03T11:46:00;6.70;;;3.67;;
60006;SDS011;45863;50.336;3.536;2023-04-03T11:50:56;7.30;;;3.50;;
60006;SDS011;45863;50.336;3.536;2023-04-03T11:58:17;8.13;;;3.27;;
60006;SDS011;45863;50.336;3.536;2023-04-03T12:05:49;7.60;;;3.47;;
60006;SDS011;45863;50.336;3.536;2023-04-03T12:13:43;7.10;;;3.78;;
60006;SDS011;45863;50.336;3.536;2023-04-03T12:16:29;7.55;;;3.42;;
60006;SDS011;45863;50.336;3.536;2023-04-03T12:19:02;5.93;;;3.13;;
60006;SDS011;45863;50.336;3.536;2023-04-03T12:26:41;7.30;;;3.25;;
60006;SDS011;45863;50.336;3.536;2023-04-03T12:29:21;6.63;;;3.70;;
60006;SDS011;45863;50.336;3.536;2023-04-03T12:32:06;7.47;;;3.53;;
60006;SDS011;45863;50.336;3.536;2023-04-03T12:42:26;6.32;;;3.17;;
60006;SDS011;45863;50.336;3.536;2023-04-03T12:47:31;6.88;;;4.35;;
60006;SDS011;45863;50.336;3.536;2023-04-03T12:49:58;7.70;;;3.95;;
60006;SDS011;45863;50.336;3.536;2023-04-03T12:54:49;7.17;;;3.47;;
60006;SDS011;45863;50.336;3.536;2023-04-03T12:59:40;8.80;;;2.90;;
60006;SDS011;45863;50.336;3.536;2023-04-03T13:04:51;7.55;;;2.83;;
60006;SDS011;45863;50.336;3.536;2023-04-03T13:07:24;4.93;;;2.70;;
60006;SDS011;45863;50.336;3.536;2023-04-03T13:12:33;7.13;;;3.20;;
60006;SDS011;45863;50.336;3.536;2023-04-03T13:14:59;5.85;;;2.92;;
60006;SDS011;45863;50.336;3.536;2023-04-03T13:17:26;9.93;;;3.28;;
60006;SDS011;45863;50.336;3.536;2023-04-03T13:19:52;5.03;;;2.97;;
60006;SDS011;45863;50.336;3.536;2023-04-03T13:22:33;7.03;;;2.75;;
60006;SDS011;45863;50.336;3.536;2023-04-03T13:25:04;8.65;;;3.17;;
60006;SDS011;45863;50.336;3.536;2023-04-03T13:27:31;8.13;;;3.05;;
60006;SDS011;45863;50.336;3.536;2023-04-03T13:29:57;6.30;;;2.60;;
60006;SDS011;45863;50.336;3.536;2023-04-03T13:32:24;6.03;;;3.17;;
60006;SDS011;45863;50.336;3.536;2023-04-03T13:34:50;6.15;;;3.35;;
60006;SDS011;45863;50.336;3.536;2023-04-03T13:37:33;7.20;;;3.22;;
60006;SDS011;45863;50.336;3.536;2023-04-03T13:42:32;5.50;;;3.20;;
60006;SDS011;45863;50.336;3.536;2023-04-03T13:47:42;6.88;;;3.25;;
60006;SDS011;45863;50.336;3.536;2023-04-03T13:52:40;8.73;;;3.60;;
60006;SDS011;45863;50.336;3.536;2023-04-03T13:57:48;6.95;;;3.22;;
60006;SDS011;45863;50.336;3.536;2023-04-03T14:00:21;6.20;;;3.17;;
60006;SDS011;45863;50.336;3.536;2023-04-03T14:02:47;7.90;;;3.15;;
60006;SDS011;45863;50.336;3.536;2023-04-03T14:05:12;7.15;;;2.92;;
60006;SDS011;45863;50.336;3.536;2023-04-03T14:07:37;8.02;;;2.30;;
60006;SDS011;45863;50.336;3.536;2023-04-03T14:10:03;6.80;;;2.87;;
60006;SDS011;45863;50.336;3.536;2023-04-03T14:12:32;6.90;;;2.58;;
60006;SDS011;45863;50.336;3.536;2023-04-03T14:14:59;8.93;;;2.90;;
60006;SDS011;45863;50.336;3.536;2023-04-03T14:17:26;8.02;;;2.80;;
60006;SDS011;45863;50.336;3.536;2023-04-03T14:19:51;8.80;;;3.15;;
60006;SDS011;45863;50.336;3.536;2023-04-03T14:22:19;6.47;;;2.88;;
60006;SDS011;45863;50.336;3.536;2023-04-03T14:24:44;7.13;;;3.30;;
60006;SDS011;45863;50.336;3.536;2023-04-03T14:27:24;8.02;;;3.22;;
60006;SDS011;45863;50.336;3.536;2023-04-03T14:29:49;6.45;;;2.88;;
60006;SDS011;45863;50.336;3.536;2023-04-03T14:32:16;7.15;;;2.38;;
60006;SDS011;45863;50.336;3.536;2023-04-03T14:34:42;7.03;;;2.65;;
60006;SDS011;45863;50.336;3.536;2023-04-03T14:37:12;6.63;;;2.40;;
60006;SDS011;45863;50.336;3.536;2023-04-03T14:39:37;9.23;;;2.92;;
60006;SDS011;45863;50.336;3.536;2023-04-03T14:42:03;9.82;;;3.00;;
60006;SDS011;45863;50.336;3.536;2023-04-03T14:44:28;6.20;;;2.53;;
60006;SDS011;45863;50.336;3.536;2023-04-03T14:46:53;5.97;;;2.50;;
60006;SDS011;45863;50.336;3.536;2023-04-03T14:49:19;8.10;;;2.90;;
60006;SDS011;45863;50.336;3.536;2023-04-03T14:51:45;7.43;;;3.00;;
60006;SDS011;45863;50.336;3.536;2023-04-03T14:54:15;7.10;;;2.75;;
60006;SDS011;45863;50.336;3.536;2023-04-03T14:56:41;9.13;;;3.25;;
60006;SDS011;45863;50.336;3.536;2023-04-03T14:59:08;8.45;;;3.15;;
60006;SDS011;45863;50.336;3.536;2023-04-03T15:01:34;10.27;;;3.70;;
60006;SDS011;45863;50.336;3.536;2023-04-03T15:03:59;8.13;;;2.67;;
60006;SDS011;45863;50.336;3.536;2023-04-03T15:06:25;9.68;;;3.03;;
60006;SDS011;45863;50.336;3.536;2023-04-03T15:08:50;8.40;;;3.08;;
60006;SDS011;45863;50.336;3.536;2023-04-03T15:11:15;9.30;;;2.63;;
60006;SDS011;45863;50.336;3.536;2023-04-03T15:13:41;7.03;;;2.95;;
60006;SDS011;45863;50.336;3.536;2023-04-03T15:16:11;9.03;;;3.33;;
60006;SDS011;45863;50.336;3.536;2023-04-03T15:18:37;6.43;;;2.80;;
60006;SDS011;45863;50.336;3.536;2023-04-03T15:21:03;9.15;;;2.78;;
60006;SDS011;45863;50.336;3.536;2023-04-03T15:23:29;6.88;;;2.65;;
60006;SDS011;45863;50.336;3.536;2023-04-03T15:25:55;7.22;;;3.00;;
60006;SDS011;45863;50.336;3.536;2023-04-03T15:28:33;6.00;;;2.38;;
60006;SDS011;45863;50.336;3.536;2023-04-03T15:30:58;6.32;;;2.40;;
60006;SDS011;45863;50.336;3.536;2023-04-03T15:33:24;8.20;;;2.45;;
60006;SDS011;45863;50.336;3.536;2023-04-03T15:35:50;7.72;;;2.10;;
60006;SDS011;45863;50.336;3.536;2023-04-03T15:38:15;6.30;;;2.05;;
60006;SDS011;45863;50.336;3.536;2023-04-03T15:40:41;6.65;;;2.60;;
60006;SDS011;45863;50.336;3.536;2023-04-03T15:43:07;7.75;;;2.80;;
60006;SDS011;45863;50.336;3.536;2023-04-03T15:45:33;8.60;;;2.78;;
60006;SDS011;45863;50.336;3.536;2023-04-03T15:47:59;8.50;;;2.65;;
60006;SDS011;45863;50.336;3.536;2023-04-03T15:50:25;10.68;;;2.40;;
60006;SDS011;45863;50.336;3.536;2023-04-03T15:52:50;7.97;;;2.33;;
60006;SDS011;45863;50.336;3.536;2023-04-03T15:55:20;7.03;;;2.33;;
60006;SDS011;45863;50.336;3.536;2023-04-03T15:57:45;6.28;;;2.33;;
60006;SDS011;45863;50.336;3.536;2023-04-03T16:00:10;12.77;;;3.73;;
60006;SDS011;45863;50.336;3.536;2023-04-03T16:02:36;8.23;;;2.50;;
60006;SDS011;45863;50.336;3.536;2023-04-03T16:05:01;5.03;;;2.05;;
60006;SDS011;45863;50.336;3.536;2023-04-03T16:07:27;8.27;;;2.40;;